Time,TemperatureF,DewpointF,PressureIn,WindDirection,WindDirectionDegrees,WindSpeedMPH,WindSpeedGustMPH,Humidity,HourlyPrecipIn,Conditions,Clouds,dailyrainin,SoftwareType,DateUTC
2013-02-10 00:01:00,22.5,19.5,30.31,ESE,123,1.0,2.0,88,0.00,,,0.00,Wunderground v.1.15,2013-02-10 05:01:00,
2013-02-10 00:06:00,22.4,19.4,30.30,ESE,123,1.0,1.0,88,0.00,,,0.00,Wunderground v.1.15,2013-02-10 05:06:00,
2013-02-10 00:11:00,22.2,19.2,30.30,ESE,123,1.0,1.0,88,0.00,,,0.00,Wunderground v.1.15,2013-02-10 05:11:00,
2013-02-10 00:16:00,22.1,19.1,30.30,ESE,123,1.0,1.0,88,0.00,,,0.00,Wunderground v.1.15,2013-02-10 05:16:00,
2013-02-10 00:26:00,22.0,19.3,30.30,ESE,123,1.0,2.0,89,0.00,,,0.00,Wunderground v.1.15,2013-02-10 05:26:00,
2013-02-10 00:31:00,22.2,19.5,30.29,ESE,123,2.0,2.0,89,0.00,,,0.00,Wunderground v.1.15,2013-02-10 05:31:00,
2013-02-10 00:41:00,22.6,19.8,30.28,East,101,3.0,5.0,89,0.00,,,0.00,Wunderground v.1.15,2013-02-10 05:41:00,
2013-02-10 00:51:00,23.0,20.2,30.29,East,101,2.0,3.0,89,0.00,,,0.00,Wunderground v.1.15,2013-02-10 05:51:00,
2013-02-10 01:00:00,23.1,20.3,30.28,ESE,102,2.0,2.0,89,0.00,,,0.00,Wunderground v.1.15,2013-02-10 06:00:00,
2013-02-10 01:05:00,23.1,20.1,30.28,ESE,102,2.0,2.0,88,0.00,,,0.00,Wunderground v.1.15,2013-02-10 06:05:00,
2013-02-10 01:10:00,23.1,20.1,30.28,ESE,102,2.0,3.0,88,0.00,,,0.00,Wunderground v.1.15,2013-02-10 06:10:00,
2013-02-10 01:15:00,23.1,20.1,30.27,ESE,102,2.0,3.0,88,0.00,,,0.00,Wunderground v.1.15,2013-02-10 06:15:00,
2013-02-10 01:20:00,23.0,20.0,30.27,ESE,102,2.0,2.0,88,0.00,,,0.00,Wunderground v.1.15,2013-02-10 06:20:00,
2013-02-10 01:25:00,23.0,19.7,30.27,ESE,102,2.0,2.0,87,0.00,,,0.00,Wunderground v.1.15,2013-02-10 06:25:00,
2013-02-10 01:35:00,22.8,19.5,30.26,ESE,102,2.0,3.0,87,0.00,,,0.00,Wunderground v.1.15,2013-02-10 06:35:00,
2013-02-10 01:40:00,22.7,19.4,30.26,ESE,102,2.0,2.0,87,0.00,,,0.00,Wunderground v.1.15,2013-02-10 06:40:00,
2013-02-10 01:50:00,22.6,19.3,30.26,ESE,102,1.0,1.0,87,0.00,,,0.00,Wunderground v.1.15,2013-02-10 06:50:00,
2013-02-10 01:55:00,22.5,19.2,30.26,ESE,102,2.0,2.0,87,0.00,,,0.00,Wunderground v.1.15,2013-02-10 06:55:00,
2013-02-10 02:00:00,22.4,19.1,30.26,ESE,102,2.0,2.0,87,0.00,,,0.00,Wunderground v.1.15,2013-02-10 07:00:00,
2013-02-10 02:05:00,22.4,19.1,30.26,ESE,102,1.0,2.0,87,0.00,,,0.00,Wunderground v.1.15,2013-02-10 07:05:00,
2013-02-10 02:10:00,22.2,18.9,30.26,ESE,102,0.0,1.0,87,0.00,,,0.00,Wunderground v.1.15,2013-02-10 07:10:00,
2013-02-10 02:15:00,22.1,18.8,30.25,ESE,102,1.0,2.0,87,0.00,,,0.00,Wunderground v.1.15,2013-02-10 07:15:00,
2013-02-10 02:20:00,21.9,18.6,30.25,ESE,102,2.0,2.0,87,0.00,,,0.00,Wunderground v.1.15,2013-02-10 07:20:00,
2013-02-10 02:25:00,21.8,18.5,30.25,ESE,102,1.0,2.0,87,0.00,,,0.00,Wunderground v.1.15,2013-02-10 07:25:00,
2013-02-10 02:30:00,21.8,18.5,30.25,ESE,102,1.0,1.0,87,0.00,,,0.00,Wunderground v.1.15,2013-02-10 07:30:00,
2013-02-10 02:35:00,21.9,18.6,30.25,ESE,102,1.0,1.0,87,0.00,,,0.00,Wunderground v.1.15,2013-02-10 07:35:00,
2013-02-10 02:45:00,22.0,18.7,30.25,ESE,102,0.0,1.0,87,0.00,,,0.00,Wunderground v.1.15,2013-02-10 07:45:00,
2013-02-10 02:50:00,22.0,18.7,30.25,ESE,102,0.0,0.0,87,0.00,,,0.00,Wunderground v.1.15,2013-02-10 07:50:00,
2013-02-10 03:00:00,22.0,18.7,30.25,ESE,102,0.0,1.0,87,0.00,,,0.00,Wunderground v.1.15,2013-02-10 08:00:00,
2013-02-10 03:05:00,22.1,18.8,30.24,ESE,102,1.0,1.0,87,0.00,,,0.00,Wunderground v.1.15,2013-02-10 08:05:00,
2013-02-10 03:15:00,22.2,18.7,30.24,ESE,102,1.0,1.0,86,0.00,,,0.00,Wunderground v.1.15,2013-02-10 08:15:00,
2013-02-10 03:20:00,22.3,19.0,30.24,ESE,102,1.0,2.0,87,0.00,,,0.00,Wunderground v.1.15,2013-02-10 08:20:00,
2013-02-10 03:25:00,22.4,18.8,30.23,ESE,102,2.0,2.0,86,0.00,,,0.00,Wunderground v.1.15,2013-02-10 08:25:00,
2013-02-10 03:30:00,22.6,19.0,30.23,ESE,102,1.0,1.0,86,0.00,,,0.00,Wunderground v.1.15,2013-02-10 08:30:00,
2013-02-10 03:35:00,22.7,19.1,30.23,ESE,102,1.0,2.0,86,0.00,,,0.00,Wunderground v.1.15,2013-02-10 08:35:00,
2013-02-10 03:45:00,23.0,19.4,30.22,ESE,103,2.0,3.0,86,0.00,,,0.00,Wunderground v.1.15,2013-02-10 08:45:00,
2013-02-10 03:50:00,23.2,19.6,30.23,ESE,104,2.0,2.0,86,0.00,,,0.00,Wunderground v.1.15,2013-02-10 08:50:00,
2013-02-10 03:55:00,23.4,19.8,30.22,ESE,104,2.0,3.0,86,0.00,,,0.00,Wunderground v.1.15,2013-02-10 08:55:00,
2013-02-10 04:00:00,23.6,20.0,30.23,ESE,104,2.0,2.0,86,0.00,,,0.00,Wunderground v.1.15,2013-02-10 09:00:00,
2013-02-10 04:10:00,23.9,20.0,30.23,ESE,105,2.0,2.0,85,0.00,,,0.00,Wunderground v.1.15,2013-02-10 09:10:00,
2013-02-10 04:15:00,23.9,19.8,30.22,ESE,105,2.0,2.0,84,0.00,,,0.00,Wunderground v.1.15,2013-02-10 09:15:00,
2013-02-10 04:20:00,24.0,19.9,30.23,ESE,105,2.0,2.0,84,0.00,,,0.00,Wunderground v.1.15,2013-02-10 09:20:00,
2013-02-10 04:25:00,24.1,20.0,30.23,ESE,109,2.0,2.0,84,0.00,,,0.00,Wunderground v.1.15,2013-02-10 09:25:00,
2013-02-10 04:35:00,24.2,20.1,30.23,ESE,108,2.0,4.0,84,0.00,,,0.00,Wunderground v.1.15,2013-02-10 09:35:00,
2013-02-10 04:45:00,24.2,20.1,30.23,ESE,109,2.0,2.0,84,0.00,,,0.00,Wunderground v.1.15,2013-02-10 09:45:00,
2013-02-10 04:55:00,24.3,20.2,30.22,ESE,109,2.0,2.0,84,0.00,,,0.00,Wunderground v.1.15,2013-02-10 09:55:00,
2013-02-10 05:00:00,24.3,20.2,30.22,ESE,109,1.0,1.0,84,0.00,,,0.00,Wunderground v.1.15,2013-02-10 10:00:00,
2013-02-10 05:10:00,24.5,20.4,30.22,ESE,109,1.0,3.0,84,0.00,,,0.00,Wunderground v.1.15,2013-02-10 10:10:00,
2013-02-10 05:15:00,24.6,20.5,30.22,ESE,109,2.0,3.0,84,0.00,,,0.00,Wunderground v.1.15,2013-02-10 10:15:00,
2013-02-10 05:20:00,24.7,20.6,30.22,ESE,109,2.0,2.0,84,0.00,,,0.00,Wunderground v.1.15,2013-02-10 10:20:00,
2013-02-10 05:30:00,24.7,20.3,30.22,ESE,109,1.0,1.0,83,0.00,,,0.00,Wunderground v.1.15,2013-02-10 10:30:00,
2013-02-10 05:35:00,24.8,20.4,30.23,ESE,109,1.0,2.0,83,0.00,,,0.00,Wunderground v.1.15,2013-02-10 10:35:00,
2013-02-10 05:40:00,24.9,20.5,30.23,ESE,109,1.0,1.0,83,0.00,,,0.00,Wunderground v.1.15,2013-02-10 10:40:00,
2013-02-10 05:50:00,24.8,20.4,30.23,ESE,109,0.0,1.0,83,0.00,,,0.00,Wunderground v.1.15,2013-02-10 10:50:00,
2013-02-10 05:55:00,24.8,20.4,30.23,ESE,109,0.0,1.0,83,0.00,,,0.00,Wunderground v.1.15,2013-02-10 10:55:00,
2013-02-10 06:00:00,24.7,20.3,30.23,ESE,109,0.0,0.0,83,0.00,,,0.00,Wunderground v.1.15,2013-02-10 11:00:00,
2013-02-10 06:05:00,24.6,20.2,30.23,ESE,109,0.0,0.0,83,0.00,,,0.00,Wunderground v.1.15,2013-02-10 11:05:00,
2013-02-10 06:15:00,24.4,20.0,30.23,ESE,109,0.0,0.0,83,0.00,,,0.00,Wunderground v.1.15,2013-02-10 11:15:00,
2013-02-10 06:25:00,24.1,20.0,30.23,ESE,109,1.0,1.0,84,0.00,,,0.00,Wunderground v.1.15,2013-02-10 11:25:00,
2013-02-10 06:35:00,24.0,19.9,30.22,ESE,109,1.0,1.0,84,0.00,,,0.00,Wunderground v.1.15,2013-02-10 11:35:00,
2013-02-10 06:45:00,23.2,18.8,30.22,ESE,109,2.0,2.0,83,0.00,,,0.00,Wunderground v.1.15,2013-02-10 11:45:00,
2013-02-10 06:50:00,23.0,19.2,30.22,ESE,109,2.0,2.0,85,0.00,,,0.00,Wunderground v.1.15,2013-02-10 11:50:00,
2013-02-10 06:55:00,23.0,19.2,30.22,ESE,109,2.0,2.0,85,0.00,,,0.00,Wunderground v.1.15,2013-02-10 11:55:00,
2013-02-10 07:00:00,23.1,19.5,30.22,ESE,109,1.0,1.0,86,0.00,,,0.00,Wunderground v.1.15,2013-02-10 12:00:00,
2013-02-10 07:10:00,23.3,19.7,30.21,ESE,109,1.0,3.0,86,0.00,,,0.00,Wunderground v.1.15,2013-02-10 12:10:00,
2013-02-10 07:15:00,23.5,19.9,30.20,ESE,105,3.0,4.0,86,0.00,,,0.00,Wunderground v.1.15,2013-02-10 12:15:00,
2013-02-10 07:20:00,24.2,20.6,30.20,East,99,3.0,5.0,86,0.00,,,0.00,Wunderground v.1.15,2013-02-10 12:20:00,
2013-02-10 07:30:00,25.7,21.8,30.19,East,85,5.0,6.0,85,0.00,,,0.00,Wunderground v.1.15,2013-02-10 12:30:00,
2013-02-10 07:40:00,26.2,22.3,30.19,East,84,5.0,5.0,85,0.00,,,0.00,Wunderground v.1.15,2013-02-10 12:40:00,
2013-02-10 07:45:00,26.5,22.3,30.18,East,84,5.0,5.0,84,0.00,,,0.00,Wunderground v.1.15,2013-02-10 12:45:00,
2013-02-10 07:55:00,26.7,22.5,30.18,East,83,5.0,7.0,84,0.00,,,0.00,Wunderground v.1.15,2013-02-10 12:55:00,
2013-02-10 08:00:00,26.8,22.3,30.18,East,84,5.0,5.0,83,0.00,,,0.00,Wunderground v.1.15,2013-02-10 13:00:00,
2013-02-10 08:05:00,27.1,22.6,30.17,East,86,5.0,5.0,83,0.00,,,0.00,Wunderground v.1.15,2013-02-10 13:05:00,
2013-02-10 08:15:00,27.4,22.9,30.17,East,85,5.0,8.0,83,0.00,,,0.00,Wunderground v.1.15,2013-02-10 13:15:00,
2013-02-10 08:25:00,27.7,23.2,30.16,East,88,6.0,7.0,83,0.00,,,0.00,Wunderground v.1.15,2013-02-10 13:25:00,
2013-02-10 08:35:00,28.1,23.6,30.16,East,92,5.0,6.0,83,0.00,,,0.00,Wunderground v.1.15,2013-02-10 13:35:00,
2013-02-10 08:45:00,28.5,24.0,30.16,East,86,4.0,5.0,83,0.00,,,0.00,Wunderground v.1.15,2013-02-10 13:45:00,
2013-02-10 08:55:00,28.7,24.5,30.17,ESE,112,4.0,5.0,84,0.00,,,0.00,Wunderground v.1.15,2013-02-10 13:55:00,
2013-02-10 09:00:00,28.9,24.4,30.17,SE,136,3.0,3.0,83,0.00,,,0.00,Wunderground v.1.15,2013-02-10 14:00:00,
2013-02-10 09:10:00,29.2,24.1,30.16,ESE,111,4.0,4.0,81,0.00,,,0.00,Wunderground v.1.15,2013-02-10 14:10:00,
2013-02-10 09:15:00,29.3,24.5,30.16,East,96,4.0,4.0,82,0.00,,,0.00,Wunderground v.1.15,2013-02-10 14:15:00,
2013-02-10 09:25:00,29.5,24.7,30.15,East,93,3.0,5.0,82,0.00,,,0.00,Wunderground v.1.15,2013-02-10 14:25:00,
2013-02-10 09:35:00,29.7,24.9,30.14,East,92,5.0,6.0,82,0.00,,,0.00,Wunderground v.1.15,2013-02-10 14:35:00,
2013-02-10 09:45:00,30.0,24.9,30.14,ESE,106,3.0,5.0,81,0.00,,,0.00,Wunderground v.1.15,2013-02-10 14:45:00,
2013-02-10 09:50:00,30.2,25.1,30.14,ESE,103,3.0,3.0,81,0.00,,,0.00,Wunderground v.1.15,2013-02-10 14:50:00,
2013-02-10 10:00:00,30.6,25.2,30.15,SE,126,2.0,2.0,80,0.00,,,0.00,Wunderground v.1.15,2013-02-10 15:00:00,
2013-02-10 10:10:00,30.9,25.2,30.14,ESE,109,2.0,5.0,79,0.00,,,0.00,Wunderground v.1.15,2013-02-10 15:10:00,
2013-02-10 10:15:00,31.0,24.9,30.14,East,97,3.0,5.0,78,0.00,,,0.00,Wunderground v.1.15,2013-02-10 15:15:00,
2013-02-10 10:25:00,31.5,25.4,30.14,ESE,117,4.0,5.0,78,0.00,,,0.00,Wunderground v.1.15,2013-02-10 15:25:00,
2013-02-10 10:35:00,32.1,25.7,30.14,SE,128,4.0,5.0,77,0.00,,,0.00,Wunderground v.1.15,2013-02-10 15:35:00,
2013-02-10 10:40:00,32.4,26.3,30.14,SE,130,3.0,3.0,78,0.00,,,0.00,Wunderground v.1.15,2013-02-10 15:40:00,
2013-02-10 10:45:00,33.2,27.1,30.13,SE,132,3.0,6.0,78,0.00,,,0.00,Wunderground v.1.15,2013-02-10 15:45:00,
2013-02-10 10:50:00,34.1,26.7,30.13,SE,132,3.0,3.0,74,0.00,,,0.00,Wunderground v.1.15,2013-02-10 15:50:00,
2013-02-10 10:55:00,34.7,26.9,30.13,SE,132,4.0,4.0,73,0.00,,,0.00,Wunderground v.1.15,2013-02-10 15:55:00,
2013-02-10 11:05:00,35.7,27.2,30.12,SE,132,2.0,3.0,71,0.00,,,0.00,Wunderground v.1.15,2013-02-10 16:05:00,
2013-02-10 11:10:00,36.0,27.2,30.12,SE,132,2.0,2.0,70,0.00,,,0.00,Wunderground v.1.15,2013-02-10 16:10:00,
2013-02-10 11:15:00,36.1,28.3,30.13,SE,132,2.0,3.0,73,0.00,,,0.00,Wunderground v.1.15,2013-02-10 16:15:00,
2013-02-10 11:25:00,35.2,27.7,30.13,ESE,105,3.0,4.0,74,0.00,,,0.00,Wunderground v.1.15,2013-02-10 16:25:00,
2013-02-10 11:35:00,35.5,28.4,30.12,ESE,105,3.0,3.0,75,0.00,,,0.00,Wunderground v.1.15,2013-02-10 16:35:00,
2013-02-10 11:40:00,35.7,28.6,30.12,ESE,105,3.0,4.0,75,0.00,,,0.00,Wunderground v.1.15,2013-02-10 16:40:00,
2013-02-10 11:45:00,35.9,28.7,30.11,East,94,3.0,5.0,75,0.00,,,0.00,Wunderground v.1.15,2013-02-10 16:45:00,
2013-02-10 11:50:00,35.8,28.0,30.11,East,94,4.0,4.0,73,0.00,,,0.00,Wunderground v.1.15,2013-02-10 16:50:00,
2013-02-10 11:55:00,35.9,28.4,30.11,East,86,5.0,5.0,74,0.00,,,0.00,Wunderground v.1.15,2013-02-10 16:55:00,
2013-02-10 12:00:00,36.2,29.0,30.10,East,86,4.0,5.0,75,0.00,,,0.00,Wunderground v.1.15,2013-02-10 17:00:00,
2013-02-10 12:10:00,36.5,29.0,30.09,East,81,6.0,6.0,74,0.00,,,0.00,Wunderground v.1.15,2013-02-10 17:10:00,
2013-02-10 12:20:00,36.8,29.0,30.08,East,86,5.0,6.0,73,0.00,,,0.00,Wunderground v.1.15,2013-02-10 17:20:00,
2013-02-10 12:25:00,36.9,29.4,30.07,East,82,5.0,7.0,74,0.00,,,0.00,Wunderground v.1.15,2013-02-10 17:25:00,
2013-02-10 12:35:00,36.6,30.1,30.06,East,81,5.0,6.0,77,0.00,,,0.00,Wunderground v.1.15,2013-02-10 17:35:00,
2013-02-10 12:40:00,36.5,29.7,30.06,East,81,5.0,5.0,76,0.00,,,0.00,Wunderground v.1.15,2013-02-10 17:40:00,
2013-02-10 12:45:00,36.3,30.4,30.05,NE,54,5.0,6.0,79,0.00,,,0.00,Wunderground v.1.15,2013-02-10 17:45:00,
2013-02-10 12:50:00,36.2,30.9,30.05,NE,54,5.0,6.0,81,0.00,,,0.00,Wunderground v.1.15,2013-02-10 17:50:00,
2013-02-10 13:00:00,36.5,30.6,30.05,ENE,69,6.0,6.0,79,0.00,,,0.00,Wunderground v.1.15,2013-02-10 18:00:00,
2013-02-10 13:10:00,35.8,29.6,30.04,East,86,6.0,8.0,78,0.00,,,0.00,Wunderground v.1.15,2013-02-10 18:10:00,
2013-02-10 13:15:00,35.7,29.8,30.04,East,87,6.0,8.0,79,0.00,,,0.00,Wunderground v.1.15,2013-02-10 18:15:00,
2013-02-10 13:25:00,35.7,30.1,30.04,East,95,4.0,5.0,80,0.00,,,0.00,Wunderground v.1.15,2013-02-10 18:25:00,
2013-02-10 13:30:00,35.5,29.9,30.03,East,86,4.0,7.0,80,0.00,,,0.00,Wunderground v.1.15,2013-02-10 18:30:00,
2013-02-10 13:35:00,35.2,30.3,30.03,East,88,4.0,7.0,82,0.00,,,0.00,Wunderground v.1.15,2013-02-10 18:35:00,
2013-02-10 13:40:00,35.2,30.3,30.02,ENE,76,5.0,5.0,82,0.00,,,0.00,Wunderground v.1.15,2013-02-10 18:40:00,
2013-02-10 13:50:00,35.4,30.5,30.02,ENE,78,6.0,6.0,82,0.00,,,0.00,Wunderground v.1.15,2013-02-10 18:50:00,
2013-02-10 14:00:00,35.8,30.5,30.02,East,88,4.0,5.0,81,0.00,,,0.00,Wunderground v.1.15,2013-02-10 19:00:00,
2013-02-10 14:10:00,35.9,30.9,30.00,ENE,74,6.0,6.0,82,0.00,,,0.00,Wunderground v.1.15,2013-02-10 19:10:00,
2013-02-10 14:15:00,36.1,31.1,30.00,ENE,76,5.0,6.0,82,0.00,,,0.00,Wunderground v.1.15,2013-02-10 19:15:00,
2013-02-10 14:20:00,36.3,31.3,30.00,ENE,76,4.0,5.0,82,0.00,,,0.00,Wunderground v.1.15,2013-02-10 19:20:00,
2013-02-10 14:25:00,36.3,31.6,29.99,ENE,76,4.0,5.0,83,0.00,,,0.00,Wunderground v.1.15,2013-02-10 19:25:00,
2013-02-10 14:30:00,36.3,31.6,29.99,ENE,76,4.0,4.0,83,0.00,,,0.00,Wunderground v.1.15,2013-02-10 19:30:00,
2013-02-10 14:35:00,36.3,31.6,29.98,ENE,76,5.0,5.0,83,0.00,,,0.00,Wunderground v.1.15,2013-02-10 19:35:00,
2013-02-10 14:40:00,36.3,31.6,29.98,ENE,71,5.0,5.0,83,0.00,,,0.00,Wunderground v.1.15,2013-02-10 19:40:00,
2013-02-10 14:45:00,36.3,31.6,29.97,East,81,5.0,7.0,83,0.00,,,0.00,Wunderground v.1.15,2013-02-10 19:45:00,
2013-02-10 14:50:00,36.2,31.2,29.97,East,83,5.0,6.0,82,0.00,,,0.00,Wunderground v.1.15,2013-02-10 19:50:00,
2013-02-10 15:00:00,36.1,31.4,29.96,East,86,5.0,6.0,83,0.00,,,0.00,Wunderground v.1.15,2013-02-10 20:00:00,
2013-02-10 15:05:00,36.0,31.3,29.96,East,86,5.0,6.0,83,0.00,,,0.00,Wunderground v.1.15,2013-02-10 20:05:00,
2013-02-10 15:15:00,35.8,31.1,29.96,ENE,78,5.0,5.0,83,0.00,,,0.00,Wunderground v.1.15,2013-02-10 20:15:00,
2013-02-10 15:20:00,35.6,30.9,29.95,ENE,78,4.0,4.0,83,0.00,,,0.00,Wunderground v.1.15,2013-02-10 20:20:00,
2013-02-10 15:30:00,35.7,31.3,29.95,ENE,78,3.0,3.0,84,0.00,,,0.00,Wunderground v.1.15,2013-02-10 20:30:00,
2013-02-10 15:35:00,35.9,31.5,29.94,ENE,78,3.0,3.0,84,0.00,,,0.00,Wunderground v.1.15,2013-02-10 20:35:00,
2013-02-10 15:40:00,35.7,31.3,29.94,East,81,3.0,5.0,84,0.00,,,0.00,Wunderground v.1.15,2013-02-10 20:40:00,
2013-02-10 15:50:00,35.6,31.2,29.95,East,81,3.0,3.0,84,0.00,,,0.00,Wunderground v.1.15,2013-02-10 20:50:00,
2013-02-10 15:55:00,35.6,31.2,29.95,East,81,2.0,3.0,84,0.00,,,0.00,Wunderground v.1.15,2013-02-10 20:55:00,
2013-02-10 16:00:00,35.6,31.2,29.95,East,81,2.0,3.0,84,0.00,,,0.00,Wunderground v.1.15,2013-02-10 21:00:00,
2013-02-10 16:05:00,35.5,31.4,29.95,East,81,2.0,3.0,85,0.00,,,0.00,Wunderground v.1.15,2013-02-10 21:05:00,
2013-02-10 16:10:00,35.4,31.0,29.95,East,81,3.0,5.0,84,0.00,,,0.00,Wunderground v.1.15,2013-02-10 21:10:00,
2013-02-10 16:15:00,35.4,31.3,29.95,East,81,2.0,5.0,85,0.00,,,0.00,Wunderground v.1.15,2013-02-10 21:15:00,
2013-02-10 16:20:00,35.5,31.4,29.95,East,81,2.0,2.0,85,0.00,,,0.00,Wunderground v.1.15,2013-02-10 21:20:00,
2013-02-10 16:25:00,35.5,31.4,29.94,East,81,1.0,2.0,85,0.00,,,0.00,Wunderground v.1.15,2013-02-10 21:25:00,
2013-02-10 16:30:00,35.5,31.4,29.93,East,81,1.0,3.0,85,0.00,,,0.00,Wunderground v.1.15,2013-02-10 21:30:00,
2013-02-10 16:35:00,35.6,31.5,29.93,East,81,2.0,3.0,85,0.00,,,0.00,Wunderground v.1.15,2013-02-10 21:35:00,
2013-02-10 16:40:00,35.7,31.6,29.92,East,81,4.0,4.0,85,0.00,,,0.00,Wunderground v.1.15,2013-02-10 21:40:00,
2013-02-10 16:50:00,35.9,31.8,29.91,East,81,1.0,1.0,85,0.00,,,0.00,Wunderground v.1.15,2013-02-10 21:50:00,
2013-02-10 16:55:00,36.0,31.9,29.91,East,81,2.0,2.0,85,0.00,,,0.00,Wunderground v.1.15,2013-02-10 21:55:00,
2013-02-10 17:00:00,36.4,32.3,29.89,East,85,2.0,3.0,85,0.00,,,0.00,Wunderground v.1.15,2013-02-10 22:00:00,
2013-02-10 17:05:00,37.1,32.1,29.90,ESE,123,3.0,4.0,82,0.00,,,0.00,Wunderground v.1.15,2013-02-10 22:05:00,
2013-02-10 17:15:00,39.3,32.0,29.89,ESE,114,3.0,3.0,75,0.00,,,0.00,Wunderground v.1.15,2013-02-10 22:15:00,
2013-02-10 17:20:00,39.7,32.1,29.88,ESE,114,2.0,2.0,74,0.00,,,0.00,Wunderground v.1.15,2013-02-10 22:20:00,
2013-02-10 17:30:00,39.4,32.1,29.87,ESE,110,2.0,3.0,75,0.00,,,0.00,Wunderground v.1.15,2013-02-10 22:30:00,
2013-02-10 17:40:00,39.2,32.3,29.88,ESE,110,2.0,2.0,76,0.00,,,0.00,Wunderground v.1.15,2013-02-10 22:40:00,
2013-02-10 17:45:00,38.7,32.1,29.88,ESE,110,1.0,2.0,77,0.00,,,0.00,Wunderground v.1.15,2013-02-10 22:45:00,
2013-02-10 17:55:00,38.2,31.9,29.88,ESE,110,1.0,2.0,78,0.00,,,0.00,Wunderground v.1.15,2013-02-10 22:55:00,
2013-02-10 18:00:00,38.2,31.9,29.88,ESE,110,1.0,1.0,78,0.00,,,0.00,Wunderground v.1.15,2013-02-10 23:00:00,
2013-02-10 18:05:00,38.2,31.9,29.87,ESE,110,1.0,2.0,78,0.00,,,0.00,Wunderground v.1.15,2013-02-10 23:05:00,
2013-02-10 18:15:00,37.2,31.6,29.86,ESE,110,2.0,3.0,80,0.00,,,0.00,Wunderground v.1.15,2013-02-10 23:15:00,
2013-02-10 18:25:00,37.3,31.7,29.86,ESE,110,2.0,2.0,80,0.00,,,0.00,Wunderground v.1.15,2013-02-10 23:25:00,
2013-02-10 18:30:00,37.1,31.8,29.86,ESE,110,2.0,2.0,81,0.00,,,0.00,Wunderground v.1.15,2013-02-10 23:30:00,
2013-02-10 18:35:00,37.0,31.7,29.86,ESE,110,2.0,2.0,81,0.00,,,0.00,Wunderground v.1.15,2013-02-10 23:35:00,
2013-02-10 18:40:00,36.8,31.8,29.85,ESE,110,2.0,2.0,82,0.00,,,0.00,Wunderground v.1.15,2013-02-10 23:40:00,
2013-02-10 18:50:00,36.6,31.6,29.85,ESE,110,2.0,2.0,82,0.00,,,0.00,Wunderground v.1.15,2013-02-10 23:50:00,
2013-02-10 18:55:00,36.3,31.6,29.83,ESE,110,2.0,2.0,83,0.00,,,0.00,Wunderground v.1.15,2013-02-10 23:55:00,
2013-02-10 19:00:00,36.3,31.6,29.84,ESE,110,2.0,2.0,83,0.00,,,0.00,Wunderground v.1.15,2013-02-11 00:00:00,
2013-02-10 19:05:00,36.8,31.8,29.85,ESE,110,2.0,2.0,82,0.00,,,0.00,Wunderground v.1.15,2013-02-11 00:05:00,
2013-02-10 19:15:00,36.9,31.9,29.85,ESE,110,1.0,1.0,82,0.00,,,0.00,Wunderground v.1.15,2013-02-11 00:15:00,
2013-02-10 19:25:00,36.9,31.9,29.85,ESE,114,1.0,2.0,82,0.00,,,0.00,Wunderground v.1.15,2013-02-11 00:25:00,
2013-02-10 19:30:00,37.9,32.0,29.84,ESE,115,2.0,2.0,79,0.00,,,0.00,Wunderground v.1.15,2013-02-11 00:30:00,
2013-02-10 19:35:00,38.9,32.3,29.85,SE,133,3.0,3.0,77,0.00,,,0.00,Wunderground v.1.15,2013-02-11 00:35:00,
2013-02-10 19:40:00,39.7,32.4,29.84,SE,140,3.0,3.0,75,0.00,,,0.00,Wunderground v.1.15,2013-02-11 00:40:00,
2013-02-10 19:45:00,40.3,32.3,29.84,SE,141,4.0,4.0,73,0.00,,,0.00,Wunderground v.1.15,2013-02-11 00:45:00,
2013-02-10 19:55:00,40.7,33.4,29.84,SSE,148,5.0,7.0,75,0.00,,,0.01,Wunderground v.1.15,2013-02-11 00:55:00,
2013-02-10 20:05:00,40.0,34.3,29.81,SE,129,5.0,8.0,80,0.00,,,0.01,Wunderground v.1.15,2013-02-11 01:05:00,
2013-02-10 20:15:00,39.8,34.4,29.80,SE,128,5.0,7.0,81,0.00,,,0.01,Wunderground v.1.15,2013-02-11 01:15:00,
2013-02-10 20:20:00,39.8,34.4,29.80,ESE,112,5.0,5.0,81,0.00,,,0.01,Wunderground v.1.15,2013-02-11 01:20:00,
2013-02-10 20:25:00,39.6,34.2,29.79,ESE,117,4.0,5.0,81,0.00,,,0.01,Wunderground v.1.15,2013-02-11 01:25:00,
2013-02-10 20:35:00,39.2,33.9,29.78,ESE,113,3.0,4.0,81,0.00,,,0.01,Wunderground v.1.15,2013-02-11 01:35:00,
2013-02-10 20:40:00,39.1,33.5,29.78,ESE,117,3.0,3.0,80,0.00,,,0.01,Wunderground v.1.15,2013-02-11 01:40:00,
2013-02-10 20:50:00,38.8,33.5,29.78,ESE,118,2.0,2.0,81,0.00,,,0.01,Wunderground v.1.15,2013-02-11 01:50:00,
2013-02-10 21:00:00,38.9,33.6,29.78,SE,132,2.0,5.0,81,0.00,,,0.01,Wunderground v.1.15,2013-02-11 02:00:00,
2013-02-10 21:05:00,39.3,33.6,29.78,SE,140,3.0,6.0,80,0.00,,,0.01,Wunderground v.1.15,2013-02-11 02:05:00,
2013-02-10 21:10:00,40.0,33.7,29.78,SE,141,4.0,4.0,78,0.00,,,0.01,Wunderground v.1.15,2013-02-11 02:10:00,
2013-02-10 21:15:00,40.6,34.0,29.78,SSE,150,5.0,5.0,77,0.00,,,0.01,Wunderground v.1.15,2013-02-11 02:15:00,
2013-02-10 21:20:00,41.4,34.1,29.77,SE,141,6.0,7.0,75,0.00,,,0.01,Wunderground v.1.15,2013-02-11 02:20:00,
2013-02-10 21:30:00,42.5,34.1,29.75,South,170,8.0,12.0,72,0.00,,,0.01,Wunderground v.1.15,2013-02-11 02:30:00,
2013-02-10 21:35:00,43.1,34.3,29.76,SE,139,9.0,12.0,71,0.00,,,0.01,Wunderground v.1.15,2013-02-11 02:35:00,
2013-02-10 21:40:00,43.5,34.4,29.76,SSE,165,10.0,10.0,70,0.00,,,0.01,Wunderground v.1.15,2013-02-11 02:40:00,
2013-02-10 21:50:00,44.4,34.9,29.75,South,186,11.0,11.0,69,0.00,,,0.01,Wunderground v.1.15,2013-02-11 02:50:00,
2013-02-10 21:55:00,44.6,35.1,29.75,South,174,12.0,12.0,69,0.00,,,0.01,Wunderground v.1.15,2013-02-11 02:55:00,
2013-02-10 22:00:00,45.1,35.5,29.75,South,182,12.0,15.0,69,0.00,,,0.01,Wunderground v.1.15,2013-02-11 03:00:00,
2013-02-10 22:05:00,45.2,35.6,29.74,South,188,13.0,18.0,69,0.00,,,0.01,Wunderground v.1.15,2013-02-11 03:05:00,
2013-02-10 22:15:00,45.1,36.3,29.74,South,182,16.0,18.0,71,0.00,,,0.01,Wunderground v.1.15,2013-02-11 03:15:00,
2013-02-10 22:20:00,44.7,36.6,29.73,South,186,14.0,16.0,73,0.00,,,0.01,Wunderground v.1.15,2013-02-11 03:20:00,
2013-02-10 22:30:00,44.7,36.6,29.73,SSW,200,15.0,15.0,73,0.00,,,0.01,Wunderground v.1.15,2013-02-11 03:30:00,
2013-02-10 22:40:00,44.7,36.9,29.73,SSW,194,14.0,16.0,74,0.00,,,0.01,Wunderground v.1.15,2013-02-11 03:40:00,
2013-02-10 22:45:00,44.8,37.0,29.73,SW,217,15.0,16.0,74,0.00,,,0.01,Wunderground v.1.15,2013-02-11 03:45:00,
2013-02-10 22:50:00,44.1,37.7,29.73,South,189,15.0,15.0,78,0.00,,,0.02,Wunderground v.1.15,2013-02-11 03:50:00,
2013-02-10 23:00:00,43.9,37.8,29.72,South,190,14.0,14.0,79,0.00,,,0.02,Wunderground v.1.15,2013-02-11 04:00:00,
2013-02-10 23:05:00,43.9,38.1,29.72,SSW,192,14.0,14.0,80,0.00,,,0.02,Wunderground v.1.15,2013-02-11 04:05:00,
2013-02-10 23:10:00,43.8,38.3,29.72,SSW,205,14.0,14.0,81,0.00,,,0.02,Wunderground v.1.15,2013-02-11 04:10:00,
2013-02-10 23:15:00,43.8,38.7,29.72,South,188,13.0,15.0,82,0.00,,,0.02,Wunderground v.1.15,2013-02-11 04:15:00,
2013-02-10 23:20:00,43.6,38.5,29.72,SSW,196,13.0,13.0,82,0.00,,,0.02,Wunderground v.1.15,2013-02-11 04:20:00,
2013-02-10 23:30:00,43.6,38.8,29.71,South,182,12.0,12.0,83,0.00,,,0.02,Wunderground v.1.15,2013-02-11 04:30:00,
2013-02-10 23:35:00,43.8,39.0,29.71,South,180,12.0,13.0,83,0.00,,,0.02,Wunderground v.1.15,2013-02-11 04:35:00,
2013-02-10 23:40:00,43.8,39.0,29.71,SSW,194,13.0,16.0,83,0.00,,,0.02,Wunderground v.1.15,2013-02-11 04:40:00,
2013-02-10 23:45:00,43.7,38.9,29.70,South,187,12.0,16.0,83,0.00,,,0.02,Wunderground v.1.15,2013-02-11 04:45:00,
2013-02-10 23:55:00,43.8,39.0,29.70,South,189,12.0,15.0,83,0.00,,,0.02,Wunderground v.1.15,2013-02-11 04:55:00,